Galicia — CQYP — position and weather

sailwx.info

Track history (hours):
 
Tides and Currents Weather Stations Pressure Air Temp Water Temp Dewpoint Dewpoint Depression Visibility Wind Speed Wind Dir Waves Ship Positions

Galicia

Last reported at 2018-Apr-18 12:47 UTC. Time now 2018-Apr-22 12:37 UTC.
Position N 37°40' W 009°55'.

Length 149 m; draft 5.4 m.

Type: Cargo ship. MMSI: 255805895.

Date/timePositionNaut miles runAvg speedWind from/ knotsBaromVisibWave heightAir tempDewpointWater temp
2018-Apr-18 12:47N 37°40' W 009°55'414.2
2018-Apr-18 12:31N 37°44' W 009°56'714.2
2018-Apr-18 12:01N 37°51' W 009°57'714.0
2018-Apr-18 11:30N 37°58' W 009°58'714.1
2018-Apr-18 11:00N 38°05' W 009°59'714.1
2018-Apr-18 10:31N 38°12' W 010°00'714.4
2018-Apr-18 10:01N 38°19' W 010°02'714.3
2018-Apr-18 09:31N 38°26' W 010°03'714.5
2018-Apr-18 09:01N 38°34' W 010°04'714.7
2018-Apr-18 08:30N 38°41' W 010°06'714.4
2018-Apr-18 08:00N 38°48' W 010°06'714.5
2018-Apr-18 07:31N 38°55' W 010°05'714.5
2018-Apr-18 07:01N 39°02' W 010°02'714.2
2018-Apr-18 06:31N 39°09' W 010°00'714.1
2018-Apr-18 06:00N 39°16' W 009°58'714.2
2018-Apr-18 05:29N 39°23' W 009°56'814.2
2018-Apr-18 04:54N 39°31' W 009°53'714.3
2018-Apr-18 04:23N 39°38' W 009°51'614.5
2018-Apr-18 04:00N 39°44' W 009°49'714.2
2018-Apr-18 03:30N 39°51' W 009°47'4214.0
2018-Apr-18 00:30N 40°31' W 009°33'  
2018-Apr-15 00:37N 49°45' W 003°36'113.3
2018-Apr-15 00:30N 49°45' W 003°34'713.4
2018-Apr-15 00:00N 49°48' W 003°25'713.5
2018-Apr-14 23:30N 49°52' W 003°16'913.2
2018-Apr-14 22:52N 49°56' W 003°05'512.7
2018-Apr-14 22:31N 49°59' W 002°59'612.1
2018-Apr-14 22:00N 50°01' W 002°50'611.8
2018-Apr-14 21:30N 50°02' W 002°41'24 9.8
2018-Apr-14 19:03N 50°09' W 002°05'1 8.7
2018-Apr-14 18:59N 50°09' W 002°04'4 8.6
2018-Apr-14 18:30N 50°10' W 001°58'4 8.9
2018-Apr-14 18:00N 50°11' W 001°51'5 9.5
2018-Apr-14 17:31N 50°13' W 001°44'510.2
2018-Apr-14 16:59N 50°14' W 001°36'511.1
2018-Apr-14 16:31N 50°16' W 001°28'612.0
2018-Apr-14 16:00N 50°17' W 001°19'713.1
2018-Apr-14 15:31N 50°19' W 001°09'814.0
2018-Apr-14 14:58N 50°21' W 000°58'2114.4
2018-Apr-14 13:31N 50°26' W 000°26'014.2
2018-Apr-14 13:30N 50°27' W 000°26'713.9
2018-Apr-14 13:00N 50°29' W 000°16'713.4
2018-Apr-14 12:30N 50°31' W 000°05'613.1
2018-Apr-14 12:00N 50°32' E 000°04'612.8
2018-Apr-14 11:30N 50°34' E 000°14'612.3
2018-Apr-14 11:00N 50°35' E 000°24'611.7
2018-Apr-14 10:30N 50°37' E 000°32'611.3
2018-Apr-14 10:00N 50°40' E 000°40'510.4
2018-Apr-14 09:30N 50°43' E 000°46'4 8.5
2018-Apr-14 09:00N 50°46' E 000°51'4 8.6
2018-Apr-14 08:30N 50°49' E 000°57'4 8.8
2018-Apr-14 08:00N 50°51' E 001°02'6 9.5
2018-Apr-14 07:24N 50°55' E 001°09'710.6
2018-Apr-14 06:43N 50°60' E 001°18'411.7
2018-Apr-14 06:20N 51°02' E 001°24'412.1
2018-Apr-14 06:00N 51°05' E 001°29'612.2
2018-Apr-14 05:30N 51°09' E 001°36'611.7
2018-Apr-14 05:00N 51°12' E 001°43'611.6
2018-Apr-14 04:30N 51°17' E 001°50'714.6
2018-Apr-14 04:00N 51°23' E 001°57'611.5
2018-Apr-14 03:31N 51°24' E 002°06'714.4
2018-Apr-14 03:00N 51°21' E 002°16'611.7
2018-Apr-14 02:30N 51°22' E 002°25'510.7
2018-Apr-14 02:00N 51°23' E 002°34'610.9
2018-Apr-14 01:26N 51°22' E 002°44'510.9
2018-Apr-14 01:00N 51°22' E 002°51'713.3
2018-Apr-14 00:30N 51°22' E 003°02'612.8
2018-Apr-14 00:01N 51°21' E 003°12'1 2.9
2018-Apr-13 23:30N 51°20' E 003°13'0 0.0
2018-Apr-13 23:00N 51°20' E 003°13'1 1.9
2018-Apr-13 22:30N 51°19' E 003°13'1 1.5
2018-Apr-13 22:00N 51°19' E 003°14'0 0.0
2018-Apr-13 21:29N 51°19' E 003°14'0 0.0
2018-Apr-13 20:59N 51°19' E 003°14'0 0.0
2018-Apr-13 20:29N 51°19' E 003°14'0 0.0
2018-Apr-13 19:59N 51°19' E 003°14'0 0.0
2018-Apr-13 19:29N 51°19' E 003°14'0 0.0
2018-Apr-13 18:59N 51°19' E 003°14'0 0.0
2018-Apr-13 18:29N 51°19' E 003°14'0 0.0
2018-Apr-13 17:59N 51°19' E 003°14'0 0.0
2018-Apr-13 17:29N 51°19' E 003°14'0 0.0
2018-Apr-13 16:59N 51°19' E 003°14'0 0.0
2018-Apr-13 16:29N 51°19' E 003°14'0 0.0
2018-Apr-13 15:59N 51°19' E 003°14'0 0.0
2018-Apr-13 15:29N 51°19' E 003°14'0 0.0
2018-Apr-13 14:59N 51°19' E 003°14'0 0.0
2018-Apr-13 14:29N 51°19' E 003°14'0 0.0
2018-Apr-13 13:58N 51°19' E 003°14'0 0.0
2018-Apr-13 13:28N 51°19' E 003°14'0 0.0
2018-Apr-13 12:58N 51°19' E 003°14'0 0.0
2018-Apr-13 12:28N 51°19' E 003°14'0 0.0
2018-Apr-13 11:58N 51°19' E 003°14'0 0.0
2018-Apr-13 11:28N 51°19' E 003°14'0 0.0
2018-Apr-13 10:58N 51°19' E 003°14'0 0.0
2018-Apr-13 10:28N 51°19' E 003°14'1 2.4
2018-Apr-13 10:00N 51°19' E 003°13'0 0.2
2018-Apr-13 09:30N 51°19' E 003°13'0 0.0
2018-Apr-13 09:00N 51°19' E 003°13'0 0.0
2018-Apr-13 08:30N 51°19' E 003°13'0 0.0
2018-Apr-13 08:00N 51°19' E 003°13'0 0.0
2018-Apr-13 07:30N 51°19' E 003°13'0 0.0
2018-Apr-13 07:00N 51°19' E 003°13'0 0.0
2018-Apr-13 06:30N 51°19' E 003°13'0 0.0
2018-Apr-13 06:00N 51°19' E 003°13'0 0.0
2018-Apr-13 05:30N 51°19' E 003°13'1 1.1
2018-Apr-13 05:00N 51°19' E 003°13'1 2.2
2018-Apr-13 04:30N 51°20' E 003°13'0 0.0
2018-Apr-13 04:00N 51°20' E 003°13'0 1.0
2018-Apr-13 03:30N 51°20' E 003°13'2 4.6
2018-Apr-13 03:00N 51°22' E 003°10'612.2
2018-Apr-13 02:30N 51°24' E 003°01'714.6
2018-Apr-13 02:00N 51°22' E 002°50'510.1
2018-Apr-13 01:30N 51°22' E 002°42'612.3
2018-Apr-13 00:59N 51°22' E 002°32'715.3
2018-Apr-13 00:30N 51°19' E 002°21'816.0
2018-Apr-13 00:00N 51°15' E 002°10'816.4
2018-Apr-12 23:30N 51°11' E 001°59'816.7
2018-Apr-12 23:00N 51°06' E 001°47'917.1
2018-Apr-12 22:30N 51°00' E 001°38'6414.8
2018-Apr-12 18:12N 50°23' E 000°16'416.1
2018-Apr-12 17:57N 50°22' E 000°10'1016.1
2018-Apr-12 17:20N 50°19' W 000°05'4115.5
2018-Apr-12 14:43N 50°08' W 001°06'314.3
2018-Apr-12 14:29N 50°08' W 001°11'713.9
2018-Apr-12 14:01N 50°06' W 001°21'713.5
2018-Apr-12 13:30N 50°04' W 001°31'613.0
2018-Apr-12 13:00N 50°02' W 001°41'612.5
2018-Apr-12 12:30N 50°01' W 001°51'612.2
2018-Apr-12 12:00N 49°59' W 001°60'1012.1
2018-Apr-12 11:11N 49°57' W 002°15'16311.6
2018-Apr-11 21:09N 48°01' W 005°10'314.6
2018-Apr-11 20:58N 47°59' W 005°08'715.1
2018-Apr-11 20:30N 47°53' W 005°02'714.8
2018-Apr-11 20:00N 47°47' W 004°55'3314.4
2018-Apr-11 17:43N 47°31' W 004°12'314.0
2018-Apr-11 17:30N 47°30' W 004°08'713.9
2018-Apr-11 17:00N 47°26' W 003°60'713.8
2018-Apr-11 16:30N 47°24' W 003°50'713.8
2018-Apr-11 16:00N 47°21' W 003°41'714.1
2018-Apr-11 15:30N 47°18' W 003°31'714.3
2018-Apr-11 15:00N 47°15' W 003°22'714.4
2018-Apr-11 14:30N 47°12' W 003°12'714.4
2018-Apr-11 14:00N 47°09' W 003°02'814.4
2018-Apr-11 13:28N 47°06' W 002°52'1513.8
2018-Apr-11 12:25N 47°03' W 002°31'613.9
2018-Apr-11 12:00N 47°06' W 002°24'611.8
2018-Apr-11 11:30N 47°11' W 002°18'9 5.9
2018-Apr-11 09:59N 47°17' W 002°10'0 0.0
2018-Apr-11 09:02N 47°17' W 002°10'0 0.0
2018-Apr-11 08:59N 47°17' W 002°10'0 0.0
2018-Apr-11 08:29N 47°17' W 002°10'0 0.0
2018-Apr-11 07:59N 47°17' W 002°10'0 0.0
2018-Apr-11 07:29N 47°17' W 002°10'0 0.0
2018-Apr-11 06:59N 47°17' W 002°10'0 0.0
2018-Apr-11 06:29N 47°17' W 002°10'0 0.0
2018-Apr-11 05:59N 47°17' W 002°10'0 0.0
2018-Apr-11 05:29N 47°17' W 002°10'0 0.0
2018-Apr-11 04:59N 47°17' W 002°10'0 0.0
2018-Apr-11 04:29N 47°17' W 002°10'0 0.0
2018-Apr-11 03:59N 47°17' W 002°10'0 0.0
2018-Apr-11 03:29N 47°17' W 002°10'0 0.0
2018-Apr-11 02:59N 47°17' W 002°10'0 0.0
2018-Apr-11 02:29N 47°17' W 002°10'0 0.0
2018-Apr-11 01:59N 47°17' W 002°10'0 0.0
2018-Apr-11 01:29N 47°17' W 002°10'0 0.0
2018-Apr-11 00:59N 47°17' W 002°10'0 0.0
2018-Apr-11 00:29N 47°17' W 002°10'0 0.0
2018-Apr-10 23:59N 47°17' W 002°10'0 0.0
2018-Apr-10 23:29N 47°17' W 002°10'0 0.2
2018-Apr-10 23:00N 47°17' W 002°10'4 8.3
2018-Apr-10 22:30N 47°15' W 002°14'714.2
2018-Apr-10 22:00N 47°09' W 002°20'611.1
2018-Apr-10 21:30N 47°05' W 002°26'714.3
2018-Apr-10 21:00N 47°01' W 002°35'714.5
2018-Apr-10 20:30N 46°58' W 002°44'  
2018-Apr-08 15:18N 39°26' W 009°47'513.2
2018-Apr-08 14:56N 39°21' W 009°47'613.2
2018-Apr-08 14:30N 39°15' W 009°47'713.7
2018-Apr-08 14:00N 39°09' W 009°49'713.9
2018-Apr-08 13:30N 39°02' W 009°50'713.8
2018-Apr-08 13:00N 38°55' W 009°51'  
Track history (hours):
 
Tides and Currents Weather Stations Pressure Air Temp Water Temp Dewpoint Dewpoint Depression Visibility Wind Speed Wind Dir Waves Ship Positions

Galicia

Last reported at 2018-Apr-18 12:47 UTC. Time now 2018-Apr-22 12:37 UTC.
Position N 37°40' W 009°55'.

Length 149 m; draft 5.4 m.

Type: Cargo ship. MMSI: 255805895.

Date/timePositionNaut miles runAvg speedWind from/ knotsBaromVisibWave heightAir tempDewpointWater temp
2018-Apr-18 12:47N 37°40' W 009°55'414.2
2018-Apr-18 12:31N 37°44' W 009°56'714.2
2018-Apr-18 12:01N 37°51' W 009°57'714.0
2018-Apr-18 11:30N 37°58' W 009°58'714.1
2018-Apr-18 11:00N 38°05' W 009°59'714.1
2018-Apr-18 10:31N 38°12' W 010°00'714.4
2018-Apr-18 10:01N 38°19' W 010°02'714.3
2018-Apr-18 09:31N 38°26' W 010°03'714.5
2018-Apr-18 09:01N 38°34' W 010°04'714.7
2018-Apr-18 08:30N 38°41' W 010°06'714.4
2018-Apr-18 08:00N 38°48' W 010°06'714.5
2018-Apr-18 07:31N 38°55' W 010°05'714.5
2018-Apr-18 07:01N 39°02' W 010°02'714.2
2018-Apr-18 06:31N 39°09' W 010°00'714.1
2018-Apr-18 06:00N 39°16' W 009°58'714.2
2018-Apr-18 05:29N 39°23' W 009°56'814.2
2018-Apr-18 04:54N 39°31' W 009°53'714.3
2018-Apr-18 04:23N 39°38' W 009°51'614.5
2018-Apr-18 04:00N 39°44' W 009°49'714.2
2018-Apr-18 03:30N 39°51' W 009°47'4214.0
2018-Apr-18 00:30N 40°31' W 009°33'  
2018-Apr-15 00:37N 49°45' W 003°36'113.3
2018-Apr-15 00:30N 49°45' W 003°34'713.4
2018-Apr-15 00:00N 49°48' W 003°25'713.5
2018-Apr-14 23:30N 49°52' W 003°16'913.2
2018-Apr-14 22:52N 49°56' W 003°05'512.7
2018-Apr-14 22:31N 49°59' W 002°59'612.1
2018-Apr-14 22:00N 50°01' W 002°50'611.8
2018-Apr-14 21:30N 50°02' W 002°41'24 9.8
2018-Apr-14 19:03N 50°09' W 002°05'1 8.7
2018-Apr-14 18:59N 50°09' W 002°04'4 8.6
2018-Apr-14 18:30N 50°10' W 001°58'4 8.9
2018-Apr-14 18:00N 50°11' W 001°51'5 9.5
2018-Apr-14 17:31N 50°13' W 001°44'510.2
2018-Apr-14 16:59N 50°14' W 001°36'511.1
2018-Apr-14 16:31N 50°16' W 001°28'612.0
2018-Apr-14 16:00N 50°17' W 001°19'713.1
2018-Apr-14 15:31N 50°19' W 001°09'814.0
2018-Apr-14 14:58N 50°21' W 000°58'2114.4
2018-Apr-14 13:31N 50°26' W 000°26'014.2
2018-Apr-14 13:30N 50°27' W 000°26'713.9
2018-Apr-14 13:00N 50°29' W 000°16'713.4
2018-Apr-14 12:30N 50°31' W 000°05'613.1
2018-Apr-14 12:00N 50°32' E 000°04'612.8
2018-Apr-14 11:30N 50°34' E 000°14'612.3
2018-Apr-14 11:00N 50°35' E 000°24'611.7
2018-Apr-14 10:30N 50°37' E 000°32'611.3
2018-Apr-14 10:00N 50°40' E 000°40'510.4
2018-Apr-14 09:30N 50°43' E 000°46'4 8.5
2018-Apr-14 09:00N 50°46' E 000°51'4 8.6
2018-Apr-14 08:30N 50°49' E 000°57'4 8.8
2018-Apr-14 08:00N 50°51' E 001°02'6 9.5
2018-Apr-14 07:24N 50°55' E 001°09'710.6
2018-Apr-14 06:43N 50°60' E 001°18'411.7
2018-Apr-14 06:20N 51°02' E 001°24'412.1
2018-Apr-14 06:00N 51°05' E 001°29'612.2
2018-Apr-14 05:30N 51°09' E 001°36'611.7
2018-Apr-14 05:00N 51°12' E 001°43'611.6
2018-Apr-14 04:30N 51°17' E 001°50'714.6
2018-Apr-14 04:00N 51°23' E 001°57'611.5
2018-Apr-14 03:31N 51°24' E 002°06'714.4
2018-Apr-14 03:00N 51°21' E 002°16'611.7
2018-Apr-14 02:30N 51°22' E 002°25'510.7
2018-Apr-14 02:00N 51°23' E 002°34'610.9
2018-Apr-14 01:26N 51°22' E 002°44'510.9
2018-Apr-14 01:00N 51°22' E 002°51'713.3
2018-Apr-14 00:30N 51°22' E 003°02'612.8
2018-Apr-14 00:01N 51°21' E 003°12'1 2.9
2018-Apr-13 23:30N 51°20' E 003°13'0 0.0
2018-Apr-13 23:00N 51°20' E 003°13'1 1.9
2018-Apr-13 22:30N 51°19' E 003°13'1 1.5
2018-Apr-13 22:00N 51°19' E 003°14'0 0.0
2018-Apr-13 21:29N 51°19' E 003°14'0 0.0
2018-Apr-13 20:59N 51°19' E 003°14'0 0.0
2018-Apr-13 20:29N 51°19' E 003°14'0 0.0
2018-Apr-13 19:59N 51°19' E 003°14'0 0.0
2018-Apr-13 19:29N 51°19' E 003°14'0 0.0
2018-Apr-13 18:59N 51°19' E 003°14'0 0.0
2018-Apr-13 18:29N 51°19' E 003°14'0 0.0
2018-Apr-13 17:59N 51°19' E 003°14'0 0.0
2018-Apr-13 17:29N 51°19' E 003°14'0 0.0
2018-Apr-13 16:59N 51°19' E 003°14'0 0.0
2018-Apr-13 16:29N 51°19' E 003°14'0 0.0
2018-Apr-13 15:59N 51°19' E 003°14'0 0.0
2018-Apr-13 15:29N 51°19' E 003°14'0 0.0
2018-Apr-13 14:59N 51°19' E 003°14'0 0.0
2018-Apr-13 14:29N 51°19' E 003°14'0 0.0
2018-Apr-13 13:58N 51°19' E 003°14'0 0.0
2018-Apr-13 13:28N 51°19' E 003°14'0 0.0
2018-Apr-13 12:58N 51°19' E 003°14'0 0.0
2018-Apr-13 12:28N 51°19' E 003°14'0 0.0
2018-Apr-13 11:58N 51°19' E 003°14'0 0.0
2018-Apr-13 11:28N 51°19' E 003°14'0 0.0
2018-Apr-13 10:58N 51°19' E 003°14'0 0.0
2018-Apr-13 10:28N 51°19' E 003°14'1 2.4
2018-Apr-13 10:00N 51°19' E 003°13'0 0.2
2018-Apr-13 09:30N 51°19' E 003°13'0 0.0
2018-Apr-13 09:00N 51°19' E 003°13'0 0.0
2018-Apr-13 08:30N 51°19' E 003°13'0 0.0
2018-Apr-13 08:00N 51°19' E 003°13'0 0.0
2018-Apr-13 07:30N 51°19' E 003°13'0 0.0
2018-Apr-13 07:00N 51°19' E 003°13'0 0.0
2018-Apr-13 06:30N 51°19' E 003°13'0 0.0
2018-Apr-13 06:00N 51°19' E 003°13'0 0.0
2018-Apr-13 05:30N 51°19' E 003°13'1 1.1
2018-Apr-13 05:00N 51°19' E 003°13'1 2.2
2018-Apr-13 04:30N 51°20' E 003°13'0 0.0
2018-Apr-13 04:00N 51°20' E 003°13'0 1.0
2018-Apr-13 03:30N 51°20' E 003°13'2 4.6
2018-Apr-13 03:00N 51°22' E 003°10'612.2
2018-Apr-13 02:30N 51°24' E 003°01'714.6
2018-Apr-13 02:00N 51°22' E 002°50'510.1
2018-Apr-13 01:30N 51°22' E 002°42'612.3
2018-Apr-13 00:59N 51°22' E 002°32'715.3
2018-Apr-13 00:30N 51°19' E 002°21'816.0
2018-Apr-13 00:00N 51°15' E 002°10'816.4
2018-Apr-12 23:30N 51°11' E 001°59'816.7
2018-Apr-12 23:00N 51°06' E 001°47'917.1
2018-Apr-12 22:30N 51°00' E 001°38'6414.8
2018-Apr-12 18:12N 50°23' E 000°16'416.1
2018-Apr-12 17:57N 50°22' E 000°10'1016.1
2018-Apr-12 17:20N 50°19' W 000°05'4115.5
2018-Apr-12 14:43N 50°08' W 001°06'314.3
2018-Apr-12 14:29N 50°08' W 001°11'713.9
2018-Apr-12 14:01N 50°06' W 001°21'713.5
2018-Apr-12 13:30N 50°04' W 001°31'613.0
2018-Apr-12 13:00N 50°02' W 001°41'612.5
2018-Apr-12 12:30N 50°01' W 001°51'612.2
2018-Apr-12 12:00N 49°59' W 001°60'1012.1
2018-Apr-12 11:11N 49°57' W 002°15'16311.6
2018-Apr-11 21:09N 48°01' W 005°10'314.6
2018-Apr-11 20:58N 47°59' W 005°08'715.1
2018-Apr-11 20:30N 47°53' W 005°02'714.8
2018-Apr-11 20:00N 47°47' W 004°55'3314.4
2018-Apr-11 17:43N 47°31' W 004°12'314.0
2018-Apr-11 17:30N 47°30' W 004°08'713.9
2018-Apr-11 17:00N 47°26' W 003°60'713.8
2018-Apr-11 16:30N 47°24' W 003°50'713.8
2018-Apr-11 16:00N 47°21' W 003°41'714.1
2018-Apr-11 15:30N 47°18' W 003°31'714.3
2018-Apr-11 15:00N 47°15' W 003°22'714.4
2018-Apr-11 14:30N 47°12' W 003°12'714.4
2018-Apr-11 14:00N 47°09' W 003°02'814.4
2018-Apr-11 13:28N 47°06' W 002°52'1513.8
2018-Apr-11 12:25N 47°03' W 002°31'613.9
2018-Apr-11 12:00N 47°06' W 002°24'611.8
2018-Apr-11 11:30N 47°11' W 002°18'9 5.9
2018-Apr-11 09:59N 47°17' W 002°10'0 0.0
2018-Apr-11 09:02N 47°17' W 002°10'0 0.0
2018-Apr-11 08:59N 47°17' W 002°10'0 0.0
2018-Apr-11 08:29N 47°17' W 002°10'0 0.0
2018-Apr-11 07:59N 47°17' W 002°10'0 0.0
2018-Apr-11 07:29N 47°17' W 002°10'0 0.0
2018-Apr-11 06:59N 47°17' W 002°10'0 0.0
2018-Apr-11 06:29N 47°17' W 002°10'0 0.0
2018-Apr-11 05:59N 47°17' W 002°10'0 0.0
2018-Apr-11 05:29N 47°17' W 002°10'0 0.0
2018-Apr-11 04:59N 47°17' W 002°10'0 0.0
2018-Apr-11 04:29N 47°17' W 002°10'0 0.0
2018-Apr-11 03:59N 47°17' W 002°10'0 0.0
2018-Apr-11 03:29N 47°17' W 002°10'0 0.0
2018-Apr-11 02:59N 47°17' W 002°10'0 0.0
2018-Apr-11 02:29N 47°17' W 002°10'0 0.0
2018-Apr-11 01:59N 47°17' W 002°10'0 0.0
2018-Apr-11 01:29N 47°17' W 002°10'0 0.0
2018-Apr-11 00:59N 47°17' W 002°10'0 0.0
2018-Apr-11 00:29N 47°17' W 002°10'0 0.0
2018-Apr-10 23:59N 47°17' W 002°10'0 0.0
2018-Apr-10 23:29N 47°17' W 002°10'0 0.2
2018-Apr-10 23:00N 47°17' W 002°10'4 8.3
2018-Apr-10 22:30N 47°15' W 002°14'714.2
2018-Apr-10 22:00N 47°09' W 002°20'611.1
2018-Apr-10 21:30N 47°05' W 002°26'714.3
2018-Apr-10 21:00N 47°01' W 002°35'714.5
2018-Apr-10 20:30N 46°58' W 002°44'  
2018-Apr-08 15:18N 39°26' W 009°47'513.2
2018-Apr-08 14:56N 39°21' W 009°47'613.2
2018-Apr-08 14:30N 39°15' W 009°47'713.7
2018-Apr-08 14:00N 39°09' W 009°49'713.9
2018-Apr-08 13:30N 39°02' W 009°50'713.8
2018-Apr-08 13:00N 38°55' W 009°51'  

Dump ship's entire track history